Time;durP1;ratioP1;P1;durP2;ratioP2;P2;SDS_P1;SDS_P2;PMS_P1;PMS_P2;Temp;Humidity;BMP_temperature;BMP_pressure;BME280_temperature;BME280_humidity;BME280_pressure;Samples;Min_cycle;Max_cycle;Signal;HPM_P1;HPM_P2
2023/01/22 00:01:30;;;;;;;8.33;2.40;;;13.50;91.20;;;;;;5046683;28;20237;-78
2023/01/22 00:03:59;;;;;;;7.30;2.20;;;13.50;91.20;;;;;;5042258;28;20208;-81
2023/01/22 00:06:28;;;;;;;7.00;3.20;;;13.50;91.10;;;;;;5043523;28;20726;-80
2023/01/22 00:08:56;;;;;;;10.00;2.70;;;13.50;91.10;;;;;;5037172;28;20196;-80
2023/01/22 00:11:25;;;;;;;7.87;2.73;;;13.50;91.10;;;;;;5042424;28;20209;-78
2023/01/22 00:13:54;;;;;;;12.10;2.50;;;13.50;91.00;;;;;;5045626;28;20567;-79
2023/01/22 00:16:23;;;;;;;5.47;2.10;;;13.50;91.00;;;;;;5046096;28;20248;-81
2023/01/22 00:18:51;;;;;;;7.73;2.50;;;13.50;91.00;;;;;;5040578;28;20227;-79
2023/01/22 00:21:19;;;;;;;8.33;2.77;;;13.50;90.90;;;;;;5041744;28;20203;-79
2023/01/22 00:23:48;;;;;;;8.67;2.93;;;13.50;90.90;;;;;;5042675;28;20542;-83
2023/01/22 00:26:17;;;;;;;8.83;2.20;;;13.50;90.90;;;;;;5041425;28;20248;-80
2023/01/22 00:28:46;;;;;;;4.43;2.40;;;13.50;90.90;;;;;;5044161;28;20212;-79
2023/01/22 00:31:16;;;;;;;4.87;2.17;;;13.50;90.90;;;;;;5044082;28;20199;-79
2023/01/22 00:33:46;;;;;;;5.83;2.37;;;13.50;91.00;;;;;;5038019;28;20727;-79
2023/01/22 00:36:17;;;;;;;8.20;2.43;;;13.50;90.90;;;;;;5042545;28;20195;-79
2023/01/22 00:38:46;;;;;;;8.37;2.13;;;13.50;90.90;;;;;;5040190;28;20648;-79
2023/01/22 00:41:15;;;;;;;9.07;2.20;;;13.50;90.80;;;;;;5033440;28;20661;-79
2023/01/22 00:43:43;;;;;;;5.63;2.43;;;13.50;90.80;;;;;;5030442;28;20664;-80
2023/01/22 00:46:14;;;;;;;5.97;2.33;;;13.50;90.80;;;;;;5033009;28;20195;-80
2023/01/22 00:48:45;;;;;;;5.43;2.20;;;13.50;90.80;;;;;;5038041;28;20625;-80
2023/01/22 00:51:14;;;;;;;3.83;2.23;;;13.60;90.80;;;;;;5035167;28;20191;-78
2023/01/22 00:53:43;;;;;;;7.13;2.73;;;13.60;90.80;;;;;;5040589;28;20230;-79
2023/01/22 00:56:13;;;;;;;8.40;2.30;;;13.50;90.70;;;;;;5038305;28;20195;-78
2023/01/22 00:58:42;;;;;;;8.40;2.63;;;13.60;90.80;;;;;;5035705;28;20203;-78
2023/01/22 01:01:12;;;;;;;5.90;2.57;;;13.60;90.70;;;;;;5035478;28;20223;-79
2023/01/22 01:03:40;;;;;;;6.37;2.50;;;13.60;90.70;;;;;;5041920;28;20211;-78
2023/01/22 01:06:14;;;;;;;7.67;2.57;;;13.60;90.70;;;;;;5055517;28;20202;-79
2023/01/22 01:08:43;;;;;;;7.00;3.07;;;13.60;90.70;;;;;;5038905;28;20200;-79
2023/01/22 01:11:14;;;;;;;8.83;2.53;;;13.60;90.60;;;;;;5039760;28;20264;-80
2023/01/22 01:13:43;;;;;;;8.53;3.07;;;13.60;90.60;;;;;;5035762;28;20443;-79
2023/01/22 01:16:14;;;;;;;7.67;3.00;;;13.60;90.80;;;;;;5039969;28;20198;-77
2023/01/22 01:18:43;;;;;;;5.03;2.63;;;13.60;90.80;;;;;;5030289;28;20199;-77
2023/01/22 01:21:12;;;;;;;7.97;2.93;;;13.60;90.70;;;;;;5044263;28;20215;-79
2023/01/22 01:23:41;;;;;;;10.00;3.93;;;13.60;90.60;;;;;;5043864;28;20199;-77
2023/01/22 01:26:13;;;;;;;7.93;2.60;;;13.60;90.60;;;;;;5048996;28;20199;-78
2023/01/22 01:28:42;;;;;;;8.90;3.40;;;13.60;90.50;;;;;;5037947;28;20206;-78
2023/01/22 01:31:13;;;;;;;8.23;2.80;;;13.60;90.50;;;;;;5043057;28;20210;-79
2023/01/22 01:33:42;;;;;;;9.60;3.20;;;13.50;90.50;;;;;;5045911;28;20282;-79
2023/01/22 01:36:14;;;;;;;5.57;2.63;;;13.50;90.40;;;;;;5041580;28;20566;-79
2023/01/22 01:38:42;;;;;;;8.40;3.70;;;13.60;90.50;;;;;;5044691;28;20206;-78
2023/01/22 01:41:13;;;;;;;8.73;2.77;;;13.50;90.40;;;;;;5041979;28;20218;-79
2023/01/22 01:43:41;;;;;;;9.10;3.13;;;13.50;90.40;;;;;;5041829;28;20226;-78
2023/01/22 01:46:16;;;;;;;10.67;3.00;;;13.50;90.40;;;;;;5039913;28;20256;-79
2023/01/22 01:48:48;;;;;;;9.57;3.60;;;13.50;90.40;;;;;;5040469;28;20203;-78
2023/01/22 01:51:21;;;;;;;5.47;2.93;;;13.50;90.40;;;;;;5043892;28;20714;-77
2023/01/22 01:53:51;;;;;;;11.90;3.10;;;13.50;90.40;;;;;;5033497;28;20224;-78
2023/01/22 01:56:23;;;;;;;6.87;2.63;;;13.50;90.40;;;;;;5039462;28;20257;-78
2023/01/22 01:58:54;;;;;;;8.30;2.73;;;13.40;90.40;;;;;;5045205;28;20195;-78
2023/01/22 02:01:23;;;;;;;7.90;2.83;;;13.40;90.50;;;;;;5044183;28;20260;-79
2023/01/22 02:03:52;;;;;;;7.07;2.80;;;13.40;90.50;;;;;;5035094;28;20666;-78
2023/01/22 02:06:23;;;;;;;7.10;3.77;;;13.40;90.60;;;;;;5042119;28;20199;-78
2023/01/22 02:08:53;;;;;;;7.13;3.03;;;13.30;90.70;;;;;;5043316;28;20241;-78
2023/01/22 02:11:23;;;;;;;9.30;3.77;;;13.30;90.70;;;;;;5046870;28;20199;-79
2023/01/22 02:13:57;;;;;;;10.50;3.80;;;13.30;90.70;;;;;;5039617;28;20207;-79
2023/01/22 02:16:25;;;;;;;7.57;3.27;;;13.30;90.70;;;;;;5042334;28;20739;-78
2023/01/22 02:18:53;;;;;;;7.90;2.80;;;13.30;90.70;;;;;;5044393;28;20289;-78
2023/01/22 02:21:34;;;;;;;9.43;3.90;;;13.30;90.70;;;;;;5043185;28;20249;-79
2023/01/22 02:24:04;;;;;;;7.53;3.10;;;13.30;90.80;;;;;;5041149;28;20198;-81
2023/01/22 02:26:32;;;;;;;5.77;3.20;;;13.30;90.80;;;;;;5045608;28;20648;-78
2023/01/22 02:29:00;;;;;;;7.53;3.47;;;13.30;90.80;;;;;;5042055;28;20257;-78
2023/01/22 02:31:29;;;;;;;7.30;2.63;;;13.30;90.90;;;;;;5043693;28;20192;-78
2023/01/22 02:33:57;;;;;;;12.10;4.03;;;13.30;90.90;;;;;;5046578;28;20664;-79
2023/01/22 02:36:26;;;;;;;10.73;3.43;;;13.30;91.00;;;;;;5041003;28;20203;-82
2023/01/22 02:38:56;;;;;;;6.13;3.10;;;13.20;91.10;;;;;;5038606;28;20937;-79
2023/01/22 02:41:25;;;;;;;7.90;4.00;;;13.30;91.40;;;;;;5038517;28;20231;-79
2023/01/22 02:43:53;;;;;;;9.97;3.50;;;13.30;91.20;;;;;;5036235;28;20190;-79
2023/01/22 02:46:24;;;;;;;7.70;3.10;;;13.20;91.10;;;;;;5035435;28;20210;-79
2023/01/22 02:48:52;;;;;;;5.83;3.30;;;13.30;91.10;;;;;;5030295;28;20203;-78
2023/01/22 02:51:21;;;;;;;7.13;2.93;;;13.30;91.10;;;;;;5033912;28;20198;-79
2023/01/22 02:53:49;;;;;;;8.10;3.37;;;13.30;91.00;;;;;;5035119;28;20321;-80
2023/01/22 02:56:19;;;;;;;10.37;3.50;;;13.30;91.10;;;;;;5036869;28;20233;-78
2023/01/22 02:58:48;;;;;;;8.83;3.07;;;13.30;91.20;;;;;;5037847;28;20211;-78
2023/01/22 03:01:21;;;;;;;7.10;3.27;;;13.30;91.30;;;;;;5040150;28;20570;-79
2023/01/22 03:03:51;;;;;;;7.80;3.07;;;13.30;91.30;;;;;;5040907;28;20218;-80
2023/01/22 03:06:21;;;;;;;8.27;2.97;;;13.30;91.20;;;;;;5045261;28;20245;-80
2023/01/22 03:08:50;;;;;;;10.27;3.30;;;13.30;91.20;;;;;;5046417;28;20206;-80
2023/01/22 03:11:19;;;;;;;9.03;3.10;;;13.40;91.30;;;;;;5044889;28;20230;-78
2023/01/22 03:22:06;;;;;;;9.85;3.60;;;13.40;91.40;;;;;;5040578;28;20445;-78
2023/01/22 03:24:35;;;;;;;8.37;2.93;;;13.40;91.80;;;;;;5039318;28;20199;-79
2023/01/22 03:27:05;;;;;;;8.43;3.23;;;13.40;91.70;;;;;;5040773;28;20285;-79
2023/01/22 03:29:37;;;;;;;9.67;3.67;;;13.40;91.70;;;;;;5045304;28;20616;-78
2023/01/22 03:32:06;;;;;;;6.40;2.50;;;13.40;91.70;;;;;;5042753;28;20191;-79
2023/01/22 03:34:34;;;;;;;7.63;3.23;;;13.40;91.70;;;;;;5047936;28;20214;-80
2023/01/22 03:37:03;;;;;;;6.43;3.10;;;13.40;91.60;;;;;;5043227;28;20250;-79
2023/01/22 03:39:32;;;;;;;8.47;3.20;;;13.40;91.80;;;;;;5047239;28;20712;-78
2023/01/22 03:42:00;;;;;;;7.80;3.63;;;13.40;91.70;;;;;;5041317;28;20215;-78
2023/01/22 03:44:30;;;;;;;8.80;3.60;;;13.40;91.70;;;;;;5044840;28;20203;-79
2023/01/22 03:46:58;;;;;;;7.33;3.10;;;13.40;91.90;;;;;;5048569;28;20256;-79
2023/01/22 03:49:26;;;;;;;8.30;3.43;;;13.40;91.80;;;;;;5046625;28;20223;-80
2023/01/22 03:51:56;;;;;;;8.27;3.43;;;13.40;91.70;;;;;;5052444;28;20201;-80
2023/01/22 03:54:24;;;;;;;8.00;3.93;;;13.40;91.70;;;;;;5021465;28;20239;-79
2023/01/22 03:56:53;;;;;;;8.63;3.40;;;13.40;91.80;;;;;;5024820;28;20206;-79
2023/01/22 03:59:21;;;;;;;8.13;3.43;;;13.40;91.80;;;;;;5026483;28;20197;-79
2023/01/22 04:01:52;;;;;;;10.57;4.00;;;13.40;91.90;;;;;;5023591;28;20220;-79
2023/01/22 04:04:21;;;;;;;9.33;3.67;;;13.40;91.90;;;;;;5025443;28;20200;-80
2023/01/22 04:06:49;;;;;;;13.80;4.27;;;13.30;91.90;;;;;;5030559;28;20615;-80
2023/01/22 04:09:17;;;;;;;8.37;4.10;;;13.40;91.90;;;;;;5021973;28;20201;-78
2023/01/22 04:11:46;;;;;;;10.10;3.93;;;13.40;92.00;;;;;;5033782;28;20689;-79
2023/01/22 04:14:14;;;;;;;8.17;3.93;;;13.30;92.00;;;;;;5027157;28;20813;-80
2023/01/22 04:16:43;;;;;;;8.00;3.83;;;13.30;92.00;;;;;;5030067;28;20204;-78
2023/01/22 04:19:13;;;;;;;7.00;3.57;;;13.30;92.00;;;;;;5025720;28;20299;-78
2023/01/22 04:21:41;;;;;;;12.33;3.97;;;13.30;92.10;;;;;;5033998;28;20257;-78
2023/01/22 04:24:10;;;;;;;8.40;3.63;;;13.30;92.50;;;;;;5028577;28;20204;-76
2023/01/22 04:26:38;;;;;;;8.03;4.00;;;13.30;92.40;;;;;;5016105;28;20204;-77
2023/01/22 04:29:07;;;;;;;7.80;3.70;;;13.20;92.80;;;;;;5022778;28;20621;-76
2023/01/22 04:31:35;;;;;;;7.37;3.70;;;13.20;92.70;;;;;;5026368;28;20262;-77
2023/01/22 04:34:03;;;;;;;8.13;3.80;;;13.20;92.70;;;;;;5029204;28;20711;-76
2023/01/22 04:36:33;;;;;;;11.10;3.90;;;13.20;92.70;;;;;;5022528;28;20569;-78
2023/01/22 04:39:01;;;;;;;9.17;4.17;;;13.20;92.70;;;;;;5023250;28;20618;-77
2023/01/22 04:41:30;;;;;;;10.50;4.27;;;13.20;92.90;;;;;;5021347;28;20317;-76
2023/01/22 04:43:58;;;;;;;11.90;4.75;;;13.10;93.10;;;;;;5017101;28;20951;-76
2023/01/22 04:46:26;;;;;;;8.00;3.93;;;13.10;93.20;;;;;;5020523;28;20618;-77
2023/01/22 04:48:55;;;;;;;11.87;3.83;;;13.10;93.30;;;;;;5017353;28;20614;-76
2023/01/22 04:51:23;;;;;;;10.40;4.27;;;13.10;93.30;;;;;;5028185;28;20199;-78
2023/01/22 04:53:53;;;;;;;10.17;4.20;;;13.10;93.30;;;;;;5026853;28;20232;-78
2023/01/22 04:56:21;;;;;;;8.87;3.70;;;13.10;93.30;;;;;;5024878;28;20544;-77
2023/01/22 04:58:49;;;;;;;9.60;3.80;;;13.00;93.20;;;;;;5015432;28;20574;-78
2023/01/22 05:01:17;;;;;;;7.57;3.77;;;13.00;93.40;;;;;;5023239;28;20664;-76
2023/01/22 05:03:46;;;;;;;13.60;4.07;;;13.00;93.40;;;;;;5017767;28;20560;-78
2023/01/22 05:06:14;;;;;;;7.80;3.80;;;13.00;93.30;;;;;;5029674;28;20198;-79
2023/01/22 05:08:43;;;;;;;9.17;4.90;;;12.90;93.30;;;;;;5025286;28;20657;-77
2023/01/22 05:11:12;;;;;;;11.10;3.70;;;12.90;93.70;;;;;;5023094;28;20267;-79
2023/01/22 05:13:40;;;;;;;9.50;3.80;;;12.90;93.70;;;;;;5016941;28;20229;-78
2023/01/22 05:16:09;;;;;;;10.67;3.53;;;12.90;93.60;;;;;;5023688;28;20211;-77
2023/01/22 05:18:39;;;;;;;7.97;3.87;;;12.80;93.50;;;;;;5011804;28;20625;-78
2023/01/22 05:21:08;;;;;;;8.13;3.53;;;12.90;93.60;;;;;;5012846;28;20555;-77
2023/01/22 05:23:36;;;;;;;8.27;3.77;;;12.80;93.60;;;;;;5028596;28;20269;-77
2023/01/22 05:26:04;;;;;;;6.97;3.43;;;12.80;93.60;;;;;;5025659;28;20253;-78
2023/01/22 05:28:34;;;;;;;12.87;4.00;;;12.80;93.60;;;;;;5024113;28;20195;-78
2023/01/22 05:31:03;;;;;;;8.27;3.75;;;12.80;93.60;;;;;;5027710;28;20439;-79
2023/01/22 05:33:32;;;;;;;11.57;4.13;;;12.80;93.80;;;;;;5037623;28;20195;-77
2023/01/22 05:36:02;;;;;;;6.37;2.90;;;12.80;93.80;;;;;;5036362;28;20249;-77
2023/01/22 05:38:30;;;;;;;10.37;3.60;;;12.80;93.80;;;;;;5022803;28;20226;-77
2023/01/22 05:40:59;;;;;;;8.47;3.80;;;12.80;93.80;;;;;;5025638;28;20196;-77
2023/01/22 05:43:27;;;;;;;12.27;4.53;;;12.80;93.80;;;;;;5027600;28;20215;-78
2023/01/22 05:46:01;;;;;;;9.07;3.80;;;12.80;93.80;;;;;;5023108;28;20612;-77
2023/01/22 05:48:32;;;;;;;12.00;4.37;;;12.80;93.80;;;;;;5018690;28;20245;-77
2023/01/22 05:51:03;;;;;;;8.30;3.80;;;12.80;93.80;;;;;;5018901;28;20254;-77
2023/01/22 05:53:32;;;;;;;11.80;3.63;;;12.80;93.90;;;;;;5014836;28;20709;-77
2023/01/22 05:56:01;;;;;;;13.27;3.47;;;12.80;93.80;;;;;;5026582;28;20223;-77
2023/01/22 05:58:29;;;;;;;15.33;3.43;;;12.80;93.80;;;;;;5028321;28;20203;-77
2023/01/22 06:00:58;;;;;;;7.00;3.50;;;12.80;94.00;;;;;;5020040;28;20235;-78
2023/01/22 06:03:28;;;;;;;9.63;4.30;;;12.70;94.20;;;;;;5033588;28;20218;-78
2023/01/22 06:06:00;;;;;;;7.50;3.97;;;12.70;94.30;;;;;;5037584;28;20199;-79
2023/01/22 06:08:29;;;;;;;9.77;4.30;;;12.70;94.30;;;;;;5033845;28;20199;-78
2023/01/22 06:11:00;;;;;;;10.83;4.20;;;12.70;94.30;;;;;;5026010;28;20315;-78
2023/01/22 06:13:29;;;;;;;8.17;3.87;;;12.60;94.50;;;;;;5023534;28;20286;-78
2023/01/22 06:15:57;;;;;;;9.37;4.00;;;12.60;94.80;;;;;;5027623;28;20278;-79
2023/01/22 06:18:27;;;;;;;7.85;4.20;;;12.50;94.70;;;;;;5030457;28;20409;-76
2023/01/22 06:20:59;;;;;;;10.70;4.20;;;12.60;94.60;;;;;;5041167;28;20219;-77
2023/01/22 06:23:28;;;;;;;10.07;4.10;;;12.50;94.60;;;;;;5018999;28;20687;-78
2023/01/22 06:26:00;;;;;;;12.60;4.23;;;12.60;94.70;;;;;;5017176;28;20287;-77
2023/01/22 06:28:29;;;;;;;13.27;4.00;;;12.50;94.70;;;;;;5022948;28;20612;-76
2023/01/22 06:31:02;;;;;;;14.13;4.50;;;12.50;94.60;;;;;;5019063;28;20210;-76
2023/01/22 06:33:34;;;;;;;10.13;4.03;;;12.50;94.70;;;;;;5015485;28;20259;-76
2023/01/22 06:36:03;;;;;;;14.17;4.27;;;12.50;94.90;;;;;;5020370;28;20200;-77
2023/01/22 06:38:31;;;;;;;10.23;4.57;;;12.50;94.90;;;;;;5024312;28;20196;-77
2023/01/22 06:41:00;;;;;;;11.87;3.93;;;12.50;94.90;;;;;;5031086;28;20281;-76
2023/01/22 06:43:29;;;;;;;11.43;4.10;;;12.50;95.00;;;;;;5029664;28;20679;-76
2023/01/22 06:45:57;;;;;;;6.53;3.93;;;12.40;95.10;;;;;;5035260;28;20640;-76
2023/01/22 06:48:26;;;;;;;12.10;4.50;;;12.50;95.10;;;;;;5033426;28;20385;-77
2023/01/22 06:50:59;;;;;;;11.43;4.60;;;12.40;95.10;;;;;;5032714;28;20697;-75
2023/01/22 06:53:28;;;;;;;12.13;4.20;;;12.50;95.30;;;;;;5022512;28;20224;-76
2023/01/22 06:55:59;;;;;;;9.27;4.17;;;12.50;95.20;;;;;;5031657;28;20727;-77
2023/01/22 06:58:28;;;;;;;11.43;4.37;;;12.40;95.50;;;;;;5024746;28;20563;-76
2023/01/22 07:01:00;;;;;;;12.63;4.67;;;12.40;95.60;;;;;;5031778;28;20278;-77
2023/01/22 07:03:28;;;;;;;11.33;4.50;;;12.40;95.70;;;;;;5026338;28;20738;-76
2023/01/22 07:06:17;;;;;;;7.77;4.63;;;12.40;95.70;;;;;;5031708;28;20282;-78
2023/01/22 07:08:55;;;;;;;11.70;4.90;;;12.30;95.80;;;;;;5009223;28;20328;-78
2023/01/22 07:11:23;;;;;;;13.23;4.20;;;12.30;95.80;;;;;;5019035;28;20195;-78
2023/01/22 07:14:07;;;;;;;12.83;4.63;;;12.40;95.70;;;;;;5024453;28;20209;-78
2023/01/22 07:16:36;;;;;;;14.27;4.37;;;12.30;96.00;;;;;;5028566;28;20207;-78
2023/01/22 07:19:05;;;;;;;11.67;4.30;;;12.30;96.30;;;;;;5022507;28;20199;-77
2023/01/22 07:21:42;;;;;;;11.87;5.17;;;12.30;96.20;;;;;;5027361;28;20729;-77
2023/01/22 07:24:11;;;;;;;14.80;5.07;;;12.30;96.10;;;;;;5017469;28;20847;-77
2023/01/22 07:26:42;;;;;;;12.73;4.63;;;12.20;96.40;;;;;;5027506;28;20216;-76
2023/01/22 07:29:11;;;;;;;11.87;4.10;;;12.30;96.40;;;;;;5030943;28;20196;-78
2023/01/22 07:31:39;;;;;;;10.77;4.47;;;12.30;96.40;;;;;;5043169;28;20199;-76
2023/01/22 07:34:08;;;;;;;10.70;4.77;;;12.30;96.30;;;;;;5024859;28;20195;-78
2023/01/22 07:36:38;;;;;;;14.60;5.03;;;12.40;96.20;;;;;;5042710;28;20226;-77
2023/01/22 07:39:06;;;;;;;10.93;4.37;;;12.40;96.20;;;;;;5025616;28;20200;-75
2023/01/22 07:41:34;;;;;;;13.17;5.90;;;12.40;96.40;;;;;;5025808;28;20204;-76
2023/01/22 07:44:03;;;;;;;14.87;5.37;;;12.40;96.50;;;;;;5022692;28;20337;-77
2023/01/22 07:46:31;;;;;;;13.00;4.67;;;12.40;96.30;;;;;;5035466;28;20200;-76
2023/01/22 07:49:00;;;;;;;14.60;5.20;;;12.40;96.30;;;;;;5024340;28;20195;-76
2023/01/22 07:51:28;;;;;;;13.90;5.63;;;12.40;96.20;;;;;;5022666;28;20224;-77
2023/01/22 07:53:58;;;;;;;12.17;6.03;;;12.50;96.10;;;;;;5025624;28;20284;-76
2023/01/22 07:56:26;;;;;;;13.80;7.03;;;12.40;96.30;;;;;;5029762;28;20304;-75
2023/01/22 07:58:54;;;;;;;13.63;5.53;;;12.40;96.20;;;;;;5026734;28;20266;-78
2023/01/22 08:01:23;;;;;;;18.47;6.97;;;12.50;96.30;;;;;;5027184;28;20230;-76
2023/01/22 08:03:51;;;;;;;14.03;6.67;;;12.40;96.30;;;;;;5021900;28;20616;-77
2023/01/22 08:06:20;;;;;;;16.10;7.20;;;12.40;96.50;;;;;;5036290;28;20254;-77
2023/01/22 08:08:49;;;;;;;19.17;7.90;;;12.40;96.70;;;;;;5014770;28;20248;-77
2023/01/22 08:11:33;;;;;;;11.00;5.93;;;12.40;96.70;;;;;;5018161;28;20419;-77
2023/01/22 08:14:01;;;;;;;15.50;6.37;;;12.40;96.60;;;;;;5012205;28;20204;-78
2023/01/22 08:16:30;;;;;;;17.33;7.93;;;12.40;96.50;;;;;;5026164;28;20844;-77
2023/01/22 08:18:58;;;;;;;13.67;6.77;;;12.40;96.50;;;;;;5024110;28;20249;-76
2023/01/22 08:21:27;;;;;;;11.67;6.57;;;12.40;96.80;;;;;;5025273;28;20263;-78
2023/01/22 08:23:55;;;;;;;18.30;7.23;;;12.40;97.00;;;;;;5027681;28;20281;-78
2023/01/22 08:26:23;;;;;;;14.13;7.10;;;12.30;97.00;;;;;;5029168;28;20644;-76
2023/01/22 08:28:53;;;;;;;12.33;6.90;;;12.40;97.40;;;;;;5013065;28;20259;-77
2023/01/22 08:31:21;;;;;;;15.03;6.13;;;12.30;97.10;;;;;;5027785;28;20230;-75
2023/01/22 08:33:58;;;;;;;18.33;7.37;;;12.40;97.10;;;;;;5026738;28;20681;-76
2023/01/22 08:36:28;;;;;;;17.75;8.20;;;12.40;97.00;;;;;;5021984;28;20852;-77
2023/01/22 08:38:56;;;;;;;18.37;7.43;;;12.40;97.10;;;;;;5018260;28;20199;-77
2023/01/22 08:41:25;;;;;;;15.17;7.53;;;12.40;97.20;;;;;;5018229;28;20204;-77
2023/01/22 08:43:54;;;;;;;16.60;7.50;;;12.50;97.10;;;;;;5022636;28;20247;-77
2023/01/22 08:46:23;;;;;;;17.80;8.27;;;12.50;97.10;;;;;;5017979;28;20212;-78
2023/01/22 08:48:51;;;;;;;16.87;7.00;;;12.50;97.00;;;;;;5016966;28;20196;-77
2023/01/22 08:51:21;;;;;;;13.93;6.30;;;12.50;97.00;;;;;;5020903;28;20255;-77
2023/01/22 08:53:50;;;;;;;13.37;6.80;;;12.50;97.00;;;;;;5014677;28;20228;-78
2023/01/22 08:56:19;;;;;;;13.90;6.33;;;12.50;97.00;;;;;;5029609;28;20199;-77
2023/01/22 08:58:49;;;;;;;14.50;6.27;;;12.50;97.00;;;;;;5030545;28;20256;-78
2023/01/22 09:01:20;;;;;;;14.03;6.30;;;12.50;97.20;;;;;;5034727;28;20258;-77
2023/01/22 09:03:49;;;;;;;14.57;6.77;;;12.50;97.00;;;;;;5024862;28;20707;-77
2023/01/22 09:06:17;;;;;;;14.47;6.87;;;12.60;97.10;;;;;;5029550;28;20579;-77
2023/01/22 09:08:46;;;;;;;15.50;7.43;;;12.50;97.10;;;;;;5023456;28;20245;-78
2023/01/22 09:11:14;;;;;;;18.57;8.10;;;12.60;97.10;;;;;;5024956;28;20198;-77
2023/01/22 09:13:42;;;;;;;14.40;6.43;;;12.60;97.20;;;;;;5022548;28;20201;-78
2023/01/22 09:16:11;;;;;;;18.50;7.17;;;12.70;97.10;;;;;;5018624;28;20200;-76
2023/01/22 09:18:40;;;;;;;14.93;6.53;;;12.70;97.20;;;;;;5014654;28;20290;-76
2023/01/22 09:21:09;;;;;;;14.50;6.27;;;12.80;97.10;;;;;;5036389;28;20218;-77
2023/01/22 09:23:37;;;;;;;12.47;6.10;;;12.80;97.10;;;;;;5035850;28;20660;-77
2023/01/22 09:26:05;;;;;;;13.87;6.63;;;12.80;97.00;;;;;;5044510;28;20577;-76
2023/01/22 09:28:34;;;;;;;18.00;6.83;;;12.80;97.10;;;;;;5027256;28;20231;-76
2023/01/22 09:31:03;;;;;;;14.63;7.57;;;12.80;97.00;;;;;;5034092;28;20206;-76
2023/01/22 09:33:32;;;;;;;14.07;6.73;;;12.80;97.20;;;;;;5041295;28;20227;-76
2023/01/22 09:36:13;;;;;;;18.13;7.77;;;12.80;97.10;;;;;;5031712;28;20261;-76
2023/01/22 09:38:41;;;;;;;16.37;7.07;;;12.80;97.30;;;;;;5022151;28;20257;-76
2023/01/22 09:41:19;;;;;;;16.10;7.17;;;12.80;97.40;;;;;;5021493;28;20220;-75
2023/01/22 09:43:52;;;;;;;13.47;6.97;;;12.80;97.40;;;;;;5010659;28;20202;-76
2023/01/22 09:46:27;;;;;;;14.43;7.10;;;12.90;97.30;;;;;;5005928;28;20185;-75
2023/01/22 09:49:02;;;;;;;21.07;7.03;;;12.90;97.40;;;;;;5002748;28;20197;-77
2023/01/22 09:51:32;;;;;;;13.10;6.23;;;13.00;97.30;;;;;;5008422;28;20189;-77
2023/01/22 09:54:02;;;;;;;15.07;7.33;;;13.00;97.30;;;;;;5003473;28;20237;-76
2023/01/22 09:56:36;;;;;;;14.87;7.13;;;13.10;97.30;;;;;;5005446;28;20628;-76
2023/01/22 09:59:06;;;;;;;14.60;6.43;;;13.20;97.30;;;;;;4996353;28;20197;-76
2023/01/22 10:01:35;;;;;;;13.53;6.83;;;13.10;97.50;;;;;;5000663;28;20318;-76
2023/01/22 10:04:13;;;;;;;12.33;5.80;;;13.20;97.50;;;;;;4999754;28;20226;-76
2023/01/22 10:06:44;;;;;;;16.13;6.93;;;13.20;97.50;;;;;;5010404;28;20612;-76
2023/01/22 10:09:17;;;;;;;13.07;5.63;;;13.20;97.50;;;;;;4996735;28;20203;-77
2023/01/22 10:11:52;;;;;;;13.27;6.30;;;13.30;97.50;;;;;;5006480;28;20661;-76
2023/01/22 10:14:23;;;;;;;14.80;5.77;;;13.30;97.50;;;;;;5019328;28;20192;-77
2023/01/22 10:16:51;;;;;;;13.67;5.77;;;13.30;97.40;;;;;;5013003;28;20188;-77
2023/01/22 10:19:24;;;;;;;17.03;6.50;;;13.30;97.50;;;;;;5016851;28;20196;-77
2023/01/22 10:22:04;;;;;;;13.33;6.23;;;13.40;97.50;;;;;;5003917;28;20209;-77
2023/01/22 10:24:32;;;;;;;13.73;6.17;;;13.40;97.50;;;;;;5007145;28;20227;-78
2023/01/22 10:27:11;;;;;;;13.43;5.93;;;13.40;97.50;;;;;;5003726;28;20259;-77
2023/01/22 10:29:40;;;;;;;11.43;5.80;;;13.40;97.50;;;;;;5006572;28;20201;-77
2023/01/22 10:32:20;;;;;;;16.35;7.10;;;13.40;97.50;;;;;;5006529;28;20468;-78
2023/01/22 10:35:02;;;;;;;10.97;5.67;;;13.40;97.50;;;;;;4999422;28;20224;-76
2023/01/22 10:37:44;;;;;;;12.93;5.07;;;13.50;97.50;;;;;;5003947;28;20269;-78
2023/01/22 10:40:22;;;;;;;12.87;5.50;;;13.50;97.40;;;;;;5005645;28;20200;-77
2023/01/22 10:43:02;;;;;;;15.33;5.13;;;13.50;97.50;;;;;;5003379;28;20191;-76
2023/01/22 10:45:31;;;;;;;15.17;5.80;;;13.50;97.50;;;;;;5014783;28;20750;-76
2023/01/22 10:48:20;;;;;;;15.03;5.90;;;13.50;97.60;;;;;;5012411;28;20290;-76
2023/01/22 10:51:02;;;;;;;14.13;5.57;;;13.50;97.80;;;;;;4990191;28;20201;-76
2023/01/22 10:53:36;;;;;;;14.37;4.77;;;13.50;97.90;;;;;;5005335;28;20286;-76
2023/01/22 10:56:10;;;;;;;19.07;5.57;;;13.50;97.80;;;;;;5007998;28;20259;-76
2023/01/22 10:58:46;;;;;;;9.83;5.13;;;13.60;97.80;;;;;;4995556;28;20197;-77
2023/01/22 11:01:31;;;;;;;17.30;6.67;;;13.60;97.70;;;;;;5005477;28;20261;-76
2023/01/22 11:04:10;;;;;;;12.80;6.03;;;13.60;97.60;;;;;;5002267;28;20274;-77
2023/01/22 11:06:42;;;;;;;13.33;7.10;;;13.60;97.60;;;;;;5011160;28;20219;-76
2023/01/22 11:09:17;;;;;;;13.43;6.03;;;13.60;97.60;;;;;;5002784;28;20564;-77
2023/01/22 11:11:51;;;;;;;12.70;5.40;;;13.60;97.80;;;;;;5017100;28;20249;-76
2023/01/22 11:14:24;;;;;;;15.85;6.45;;;13.70;97.80;;;;;;5006338;28;20444;-76
2023/01/22 11:16:56;;;;;;;16.67;6.57;;;13.70;98.10;;;;;;5004907;28;20274;-76
2023/01/22 11:19:29;;;;;;;13.57;6.33;;;13.80;98.10;;;;;;4999532;28;20215;-77
2023/01/22 11:22:14;;;;;;;16.30;5.73;;;13.90;98.00;;;;;;5014721;28;20211;-77
2023/01/22 11:24:47;;;;;;;14.23;7.20;;;13.90;97.80;;;;;;5001560;28;20472;-78
2023/01/22 11:27:53;;;;;;;18.93;7.23;;;14.00;97.80;;;;;;5009050;28;20459;-78
2023/01/22 11:30:54;;;;;;;12.67;5.47;;;14.00;97.70;;;;;;4990400;28;20251;-76
2023/01/22 11:33:45;;;;;;;14.33;5.17;;;14.00;97.70;;;;;;4965533;28;20641;-78
2023/01/22 11:36:21;;;;;;;15.10;6.15;;;14.00;97.80;;;;;;5011292;28;20431;-77
2023/01/22 11:38:55;;;;;;;16.00;5.53;;;14.00;97.70;;;;;;5006459;28;20192;-75
2023/01/22 11:41:46;;;;;;;14.10;6.27;;;14.00;97.70;;;;;;4997895;28;20197;-76
2023/01/22 11:44:39;;;;;;;13.77;6.30;;;14.00;97.70;;;;;;4987856;28;20212;-77
2023/01/22 11:47:23;;;;;;;14.13;5.43;;;14.00;97.90;;;;;;4988556;28;20244;-78
2023/01/22 11:50:01;;;;;;;12.25;6.47;;;14.00;97.90;;;;;;5004935;28;20782;-77
2023/01/22 11:52:41;;;;;;;22.80;7.50;;;14.00;98.20;;;;;;5007495;28;20646;-77
2023/01/22 11:55:29;;;;;;;12.70;5.33;;;14.00;98.20;;;;;;5001405;28;20196;-77
2023/01/22 11:58:10;;;;;;;15.90;6.90;;;13.90;98.10;;;;;;4999024;28;20205;-77
2023/01/22 12:00:45;;;;;;;12.27;5.80;;;14.00;98.10;;;;;;4997128;28;20448;-76
2023/01/22 12:03:44;;;;;;;10.23;4.43;;;14.00;98.20;;;;;;5005345;28;20191;-77
2023/01/22 12:06:32;;;;;;;10.53;4.13;;;14.00;98.10;;;;;;4994403;28;20205;-76
2023/01/22 12:09:06;;;;;;;15.03;5.90;;;14.00;97.90;;;;;;4993311;28;20337;-76
2023/01/22 12:11:53;;;;;;;9.30;4.20;;;14.10;97.70;;;;;;5000276;28;20501;-76
2023/01/22 12:14:49;;;;;;;15.53;5.30;;;14.10;97.60;;;;;;5012634;28;20192;-77
2023/01/22 12:17:34;;;;;;;10.70;3.97;;;14.10;97.50;;;;;;4992122;28;20252;-78
2023/01/22 12:20:27;;;;;;;10.53;4.47;;;14.10;97.40;;;;;;5010991;28;20245;-77
2023/01/22 12:23:01;;;;;;;9.90;5.07;;;14.20;97.40;;;;;;5001609;28;20192;-77
2023/01/22 12:25:36;;;;;;;14.97;5.00;;;14.20;97.50;;;;;;5010560;28;20207;-77
2023/01/22 12:28:12;;;;;;;13.00;5.40;;;14.20;97.60;;;;;;5003601;28;20676;-78
2023/01/22 12:30:49;;;;;;;14.83;5.33;;;14.20;97.60;;;;;;5004454;28;20678;-77
2023/01/22 12:33:20;;;;;;;11.43;4.80;;;14.20;97.60;;;;;;5002941;28;20192;-78
2023/01/22 12:35:51;;;;;;;12.57;5.17;;;14.20;97.60;;;;;;4999107;28;20219;-76
2023/01/22 12:38:34;;;;;;;11.90;5.20;;;14.30;97.60;;;;;;5006195;28;20254;-76
2023/01/22 12:41:12;;;;;;;12.97;4.93;;;14.30;97.60;;;;;;5010857;28;20775;-76
2023/01/22 12:43:56;;;;;;;8.93;4.17;;;14.30;97.50;;;;;;5007543;28;20238;-76
2023/01/22 12:46:35;;;;;;;11.97;5.17;;;14.40;97.50;;;;;;5002910;28;20251;-78
2023/01/22 12:49:07;;;;;;;9.90;5.23;;;14.40;97.40;;;;;;4998802;28;20196;-76
2023/01/22 12:51:38;;;;;;;10.13;4.30;;;14.40;97.40;;;;;;5014674;28;20192;-78
2023/01/22 12:54:21;;;;;;;16.80;6.10;;;14.40;97.30;;;;;;5008838;28;20224;-77
2023/01/22 12:56:50;;;;;;;11.70;4.97;;;14.50;97.30;;;;;;5005353;28;20197;-79
2023/01/22 12:59:40;;;;;;;12.57;4.77;;;14.50;97.30;;;;;;4995838;28;20785;-78
2023/01/22 13:02:36;;;;;;;8.93;4.30;;;14.50;97.20;;;;;;4998898;28;20232;-77
2023/01/22 13:05:17;;;;;;;11.17;4.63;;;14.60;97.10;;;;;;5007921;28;20197;-77
2023/01/22 13:07:48;;;;;;;6.93;4.03;;;14.50;97.00;;;;;;5002570;28;20208;-78
2023/01/22 13:10:28;;;;;;;14.57;4.87;;;14.60;96.90;;;;;;5001282;28;20672;-77
2023/01/22 13:12:58;;;;;;;14.00;5.07;;;14.60;96.90;;;;;;5004345;28;20200;-76